sensor_id;sensor_type;location;lat;lon;timestamp;temperature;humidity
20045;DHT22;10183;47.808;9.476;2023-01-01T00:01:07;12.70;99.90
20045;DHT22;10183;47.808;9.476;2023-01-01T00:03:33;12.80;99.90
20045;DHT22;10183;47.808;9.476;2023-01-01T00:06:07;12.80;99.90
20045;DHT22;10183;47.808;9.476;2023-01-01T00:08:34;12.90;99.90
20045;DHT22;10183;47.808;9.476;2023-01-01T00:11:05;12.70;99.90
20045;DHT22;10183;47.808;9.476;2023-01-01T00:13:32;12.50;99.90
20045;DHT22;10183;47.808;9.476;2023-01-01T00:16:09;12.50;99.90
20045;DHT22;10183;47.808;9.476;2023-01-01T00:18:35;13.00;99.90
20045;DHT22;10183;47.808;9.476;2023-01-01T00:21:12;12.80;99.90
20045;DHT22;10183;47.808;9.476;2023-01-01T00:23:39;12.80;99.90
20045;DHT22;10183;47.808;9.476;2023-01-01T00:26:14;12.60;99.90
20045;DHT22;10183;47.808;9.476;2023-01-01T00:28:41;12.40;99.90
20045;DHT22;10183;47.808;9.476;2023-01-01T00:31:25;12.30;99.90
20045;DHT22;10183;47.808;9.476;2023-01-01T00:33:53;12.60;99.90
20045;DHT22;10183;47.808;9.476;2023-01-01T00:36:23;12.50;99.90
20045;DHT22;10183;47.808;9.476;2023-01-01T00:38:49;12.50;99.90
20045;DHT22;10183;47.808;9.476;2023-01-01T00:41:16;12.50;99.90
20045;DHT22;10183;47.808;9.476;2023-01-01T00:43:43;12.70;99.90
20045;DHT22;10183;47.808;9.476;2023-01-01T00:46:10;12.60;99.90
20045;DHT22;10183;47.808;9.476;2023-01-01T00:48:36;12.60;99.90
20045;DHT22;10183;47.808;9.476;2023-01-01T00:51:03;12.60;99.90
20045;DHT22;10183;47.808;9.476;2023-01-01T00:53:29;12.30;99.90
20045;DHT22;10183;47.808;9.476;2023-01-01T00:55:56;12.50;99.90
20045;DHT22;10183;47.808;9.476;2023-01-01T00:58:23;11.90;99.90
20045;DHT22;10183;47.808;9.476;2023-01-01T01:00:51;11.80;99.90
20045;DHT22;10183;47.808;9.476;2023-01-01T01:03:18;11.70;99.90
20045;DHT22;10183;47.808;9.476;2023-01-01T01:05:57;11.60;99.90
20045;DHT22;10183;47.808;9.476;2023-01-01T01:08:24;11.30;99.90
20045;DHT22;10183;47.808;9.476;2023-01-01T01:10:51;11.20;99.90
20045;DHT22;10183;47.808;9.476;2023-01-01T01:13:17;11.00;99.90
20045;DHT22;10183;47.808;9.476;2023-01-01T01:15:43;10.90;99.90
20045;DHT22;10183;47.808;9.476;2023-01-01T01:18:09;10.70;99.90
20045;DHT22;10183;47.808;9.476;2023-01-01T01:20:36;10.80;99.90
20045;DHT22;10183;47.808;9.476;2023-01-01T01:23:02;10.80;99.90
20045;DHT22;10183;47.808;9.476;2023-01-01T01:25:28;10.70;99.90
20045;DHT22;10183;47.808;9.476;2023-01-01T01:27:54;10.60;99.90
20045;DHT22;10183;47.808;9.476;2023-01-01T01:30:20;10.40;99.90
20045;DHT22;10183;47.808;9.476;2023-01-01T01:32:46;10.10;99.90
20045;DHT22;10183;47.808;9.476;2023-01-01T01:35:13;9.90;99.90
20045;DHT22;10183;47.808;9.476;2023-01-01T01:37:39;9.80;99.90
20045;DHT22;10183;47.808;9.476;2023-01-01T01:40:06;9.60;99.90
20045;DHT22;10183;47.808;9.476;2023-01-01T01:42:32;9.60;99.90
20045;DHT22;10183;47.808;9.476;2023-01-01T01:45:00;9.50;99.90
20045;DHT22;10183;47.808;9.476;2023-01-01T01:50:26;9.50;99.90
20045;DHT22;10183;47.808;9.476;2023-01-01T01:53:03;9.60;99.90
20045;DHT22;10183;47.808;9.476;2023-01-01T01:55:34;9.60;99.90
20045;DHT22;10183;47.808;9.476;2023-01-01T01:58:02;9.60;99.90
20045;DHT22;10183;47.808;9.476;2023-01-01T02:00:31;9.60;99.90
20045;DHT22;10183;47.808;9.476;2023-01-01T02:03:11;9.60;99.90
20045;DHT22;10183;47.808;9.476;2023-01-01T02:05:39;10.10;99.90
20045;DHT22;10183;47.808;9.476;2023-01-01T02:08:07;9.90;99.90
20045;DHT22;10183;47.808;9.476;2023-01-01T02:10:34;10.00;99.90
20045;DHT22;10183;47.808;9.476;2023-01-01T02:13:01;10.10;99.90
20045;DHT22;10183;47.808;9.476;2023-01-01T02:15:30;10.20;99.90
20045;DHT22;10183;47.808;9.476;2023-01-01T02:18:09;9.90;99.90
20045;DHT22;10183;47.808;9.476;2023-01-01T02:20:59;9.90;99.90
20045;DHT22;10183;47.808;9.476;2023-01-01T02:31:27;10.30;99.90
20045;DHT22;10183;47.808;9.476;2023-01-01T02:33:59;10.30;99.90
20045;DHT22;10183;47.808;9.476;2023-01-01T02:36:29;10.40;99.90
20045;DHT22;10183;47.808;9.476;2023-01-01T02:38:59;10.60;99.90
20045;DHT22;10183;47.808;9.476;2023-01-01T02:41:33;11.00;99.90
20045;DHT22;10183;47.808;9.476;2023-01-01T02:44:02;11.20;99.90
20045;DHT22;10183;47.808;9.476;2023-01-01T02:46:33;11.10;99.90
20045;DHT22;10183;47.808;9.476;2023-01-01T02:49:01;11.10;99.90
20045;DHT22;10183;47.808;9.476;2023-01-01T02:51:44;11.30;99.90
20045;DHT22;10183;47.808;9.476;2023-01-01T02:56:59;11.50;99.90
20045;DHT22;10183;47.808;9.476;2023-01-01T03:09:04;11.70;99.90
20045;DHT22;10183;47.808;9.476;2023-01-01T03:14:49;11.70;99.90
20045;DHT22;10183;47.808;9.476;2023-01-01T03:17:29;11.80;99.90
20045;DHT22;10183;47.808;9.476;2023-01-01T03:20:02;11.80;99.90
20045;DHT22;10183;47.808;9.476;2023-01-01T03:22:35;12.00;99.90
20045;DHT22;10183;47.808;9.476;2023-01-01T03:25:11;11.80;99.90
20045;DHT22;10183;47.808;9.476;2023-01-01T03:27:43;11.90;99.90
20045;DHT22;10183;47.808;9.476;2023-01-01T03:30:10;12.00;99.90
20045;DHT22;10183;47.808;9.476;2023-01-01T03:32:44;12.20;99.90
20045;DHT22;10183;47.808;9.476;2023-01-01T03:35:53;12.40;99.90
20045;DHT22;10183;47.808;9.476;2023-01-01T03:38:35;12.50;99.90
20045;DHT22;10183;47.808;9.476;2023-01-01T03:41:10;12.50;99.90
20045;DHT22;10183;47.808;9.476;2023-01-01T03:43:48;12.40;99.90
20045;DHT22;10183;47.808;9.476;2023-01-01T03:46:19;12.30;99.90
20045;DHT22;10183;47.808;9.476;2023-01-01T03:48:48;12.40;99.90
20045;DHT22;10183;47.808;9.476;2023-01-01T03:54:55;12.50;99.90
20045;DHT22;10183;47.808;9.476;2023-01-01T04:00:22;12.40;99.90
20045;DHT22;10183;47.808;9.476;2023-01-01T04:02:56;12.50;99.90
20045;DHT22;10183;47.808;9.476;2023-01-01T04:05:24;12.50;99.90
20045;DHT22;10183;47.808;9.476;2023-01-01T04:07:52;12.60;99.90
20045;DHT22;10183;47.808;9.476;2023-01-01T04:10:19;12.60;99.90
20045;DHT22;10183;47.808;9.476;2023-01-01T04:12:48;12.40;99.90
20045;DHT22;10183;47.808;9.476;2023-01-01T04:15:21;12.60;99.90
20045;DHT22;10183;47.808;9.476;2023-01-01T04:17:47;12.50;99.90
20045;DHT22;10183;47.808;9.476;2023-01-01T04:20:13;12.50;99.90
20045;DHT22;10183;47.808;9.476;2023-01-01T04:22:39;12.40;99.90
20045;DHT22;10183;47.808;9.476;2023-01-01T04:25:06;12.40;99.90
20045;DHT22;10183;47.808;9.476;2023-01-01T04:27:33;12.40;99.90
20045;DHT22;10183;47.808;9.476;2023-01-01T04:29:59;12.40;99.90
20045;DHT22;10183;47.808;9.476;2023-01-01T04:32:25;12.30;99.90
20045;DHT22;10183;47.808;9.476;2023-01-01T04:34:51;12.50;99.90
20045;DHT22;10183;47.808;9.476;2023-01-01T04:37:17;12.30;99.90
20045;DHT22;10183;47.808;9.476;2023-01-01T04:39:44;12.20;99.90
20045;DHT22;10183;47.808;9.476;2023-01-01T04:42:10;11.90;99.90
20045;DHT22;10183;47.808;9.476;2023-01-01T04:44:36;11.80;99.90
20045;DHT22;10183;47.808;9.476;2023-01-01T04:47:03;11.60;99.90
20045;DHT22;10183;47.808;9.476;2023-01-01T04:49:29;11.60;99.90
20045;DHT22;10183;47.808;9.476;2023-01-01T04:51:55;11.70;99.90
20045;DHT22;10183;47.808;9.476;2023-01-01T04:54:21;11.60;99.90
20045;DHT22;10183;47.808;9.476;2023-01-01T04:56:47;11.50;99.90
20045;DHT22;10183;47.808;9.476;2023-01-01T04:59:14;11.40;99.90
20045;DHT22;10183;47.808;9.476;2023-01-01T05:01:40;11.30;99.90
20045;DHT22;10183;47.808;9.476;2023-01-01T05:04:06;11.20;99.90
20045;DHT22;10183;47.808;9.476;2023-01-01T05:06:33;11.00;99.90
20045;DHT22;10183;47.808;9.476;2023-01-01T05:08:59;10.90;99.90
20045;DHT22;10183;47.808;9.476;2023-01-01T05:11:27;10.70;99.90
20045;DHT22;10183;47.808;9.476;2023-01-01T05:13:56;10.60;99.90
20045;DHT22;10183;47.808;9.476;2023-01-01T05:16:25;10.40;99.90
20045;DHT22;10183;47.808;9.476;2023-01-01T05:18:53;10.20;99.90
20045;DHT22;10183;47.808;9.476;2023-01-01T05:21:27;10.00;99.90
20045;DHT22;10183;47.808;9.476;2023-01-01T05:23:55;9.90;99.90
20045;DHT22;10183;47.808;9.476;2023-01-01T05:26:23;9.70;99.90
20045;DHT22;10183;47.808;9.476;2023-01-01T05:28:50;9.70;99.90
20045;DHT22;10183;47.808;9.476;2023-01-01T05:31:18;9.50;99.90
20045;DHT22;10183;47.808;9.476;2023-01-01T05:33:45;9.70;99.90
20045;DHT22;10183;47.808;9.476;2023-01-01T05:36:17;9.60;99.90
20045;DHT22;10183;47.808;9.476;2023-01-01T05:38:44;9.50;99.90
20045;DHT22;10183;47.808;9.476;2023-01-01T05:41:13;9.40;99.90
20045;DHT22;10183;47.808;9.476;2023-01-01T05:43:40;9.20;99.90
20045;DHT22;10183;47.808;9.476;2023-01-01T05:46:09;9.20;99.90
20045;DHT22;10183;47.808;9.476;2023-01-01T05:48:35;9.20;99.90
20045;DHT22;10183;47.808;9.476;2023-01-01T05:51:08;9.40;99.90
20045;DHT22;10183;47.808;9.476;2023-01-01T05:53:34;9.40;99.90
20045;DHT22;10183;47.808;9.476;2023-01-01T05:56:01;9.30;99.90
20045;DHT22;10183;47.808;9.476;2023-01-01T05:58:28;9.10;99.90
20045;DHT22;10183;47.808;9.476;2023-01-01T06:00:55;9.00;99.90
20045;DHT22;10183;47.808;9.476;2023-01-01T06:03:22;8.90;99.90
20045;DHT22;10183;47.808;9.476;2023-01-01T06:05:48;9.00;99.90
20045;DHT22;10183;47.808;9.476;2023-01-01T06:08:14;9.00;99.90
20045;DHT22;10183;47.808;9.476;2023-01-01T06:10:40;8.90;99.90
20045;DHT22;10183;47.808;9.476;2023-01-01T06:13:07;9.00;99.90
20045;DHT22;10183;47.808;9.476;2023-01-01T06:15:33;9.00;99.90
20045;DHT22;10183;47.808;9.476;2023-01-01T06:17:59;9.00;99.90
20045;DHT22;10183;47.808;9.476;2023-01-01T06:20:25;9.20;99.90
20045;DHT22;10183;47.808;9.476;2023-01-01T06:22:51;8.90;99.90
20045;DHT22;10183;47.808;9.476;2023-01-01T06:25:18;9.90;99.90
20045;DHT22;10183;47.808;9.476;2023-01-01T06:27:44;10.40;99.90
20045;DHT22;10183;47.808;9.476;2023-01-01T06:30:10;10.90;99.90
20045;DHT22;10183;47.808;9.476;2023-01-01T06:32:36;11.00;99.90
20045;DHT22;10183;47.808;9.476;2023-01-01T06:35:03;11.10;99.90
20045;DHT22;10183;47.808;9.476;2023-01-01T06:37:29;11.10;99.90
20045;DHT22;10183;47.808;9.476;2023-01-01T06:39:55;11.00;99.90
20045;DHT22;10183;47.808;9.476;2023-01-01T06:42:21;11.20;99.90
20045;DHT22;10183;47.808;9.476;2023-01-01T06:44:47;11.20;99.90
20045;DHT22;10183;47.808;9.476;2023-01-01T06:47:13;11.00;99.90
20045;DHT22;10183;47.808;9.476;2023-01-01T06:49:39;10.80;99.90
20045;DHT22;10183;47.808;9.476;2023-01-01T06:52:06;10.60;99.90
20045;DHT22;10183;47.808;9.476;2023-01-01T06:54:32;10.50;99.90
20045;DHT22;10183;47.808;9.476;2023-01-01T06:56:58;10.20;99.90
20045;DHT22;10183;47.808;9.476;2023-01-01T06:59:24;10.30;99.90
20045;DHT22;10183;47.808;9.476;2023-01-01T07:01:50;10.30;99.90
20045;DHT22;10183;47.808;9.476;2023-01-01T07:04:17;10.40;99.90
20045;DHT22;10183;47.808;9.476;2023-01-01T07:06:43;10.50;99.90
20045;DHT22;10183;47.808;9.476;2023-01-01T07:09:09;10.50;99.90
20045;DHT22;10183;47.808;9.476;2023-01-01T07:11:35;10.60;99.90
20045;DHT22;10183;47.808;9.476;2023-01-01T07:14:02;10.60;99.90
20045;DHT22;10183;47.808;9.476;2023-01-01T07:16:28;10.70;99.90
20045;DHT22;10183;47.808;9.476;2023-01-01T07:18:54;11.00;99.90
20045;DHT22;10183;47.808;9.476;2023-01-01T07:23:51;10.60;99.90
20045;DHT22;10183;47.808;9.476;2023-01-01T07:26:17;10.30;99.90
20045;DHT22;10183;47.808;9.476;2023-01-01T07:28:43;10.00;99.90
20045;DHT22;10183;47.808;9.476;2023-01-01T07:31:09;10.00;99.90
20045;DHT22;10183;47.808;9.476;2023-01-01T07:33:35;10.00;99.90
20045;DHT22;10183;47.808;9.476;2023-01-01T07:36:02;10.30;99.90
20045;DHT22;10183;47.808;9.476;2023-01-01T07:38:28;10.70;99.90
20045;DHT22;10183;47.808;9.476;2023-01-01T07:40:56;10.50;99.90
20045;DHT22;10183;47.808;9.476;2023-01-01T07:43:22;10.50;99.90
20045;DHT22;10183;47.808;9.476;2023-01-01T07:45:48;10.60;99.90
20045;DHT22;10183;47.808;9.476;2023-01-01T07:48:14;10.60;99.90
20045;DHT22;10183;47.808;9.476;2023-01-01T07:50:41;10.70;99.90
20045;DHT22;10183;47.808;9.476;2023-01-01T07:53:07;10.80;99.90
20045;DHT22;10183;47.808;9.476;2023-01-01T07:55:34;10.90;99.90
20045;DHT22;10183;47.808;9.476;2023-01-01T07:58:00;10.90;99.90
20045;DHT22;10183;47.808;9.476;2023-01-01T08:00:27;10.90;99.90
20045;DHT22;10183;47.808;9.476;2023-01-01T08:02:53;11.00;99.90
20045;DHT22;10183;47.808;9.476;2023-01-01T08:05:19;11.10;99.90
20045;DHT22;10183;47.808;9.476;2023-01-01T08:07:47;11.20;99.90
20045;DHT22;10183;47.808;9.476;2023-01-01T08:10:14;11.40;99.90
20045;DHT22;10183;47.808;9.476;2023-01-01T08:12:41;11.50;99.90
20045;DHT22;10183;47.808;9.476;2023-01-01T08:15:08;11.50;99.90
20045;DHT22;10183;47.808;9.476;2023-01-01T08:17:35;11.70;99.90
20045;DHT22;10183;47.808;9.476;2023-01-01T08:20:02;11.70;99.90
20045;DHT22;10183;47.808;9.476;2023-01-01T08:22:28;11.70;99.90
20045;DHT22;10183;47.808;9.476;2023-01-01T08:24:54;11.80;99.90
20045;DHT22;10183;47.808;9.476;2023-01-01T08:27:20;11.80;99.90
20045;DHT22;10183;47.808;9.476;2023-01-01T08:29:47;12.10;99.90
20045;DHT22;10183;47.808;9.476;2023-01-01T08:32:14;11.90;99.90
20045;DHT22;10183;47.808;9.476;2023-01-01T08:34:40;12.10;99.90
20045;DHT22;10183;47.808;9.476;2023-01-01T08:37:11;12.10;99.90
20045;DHT22;10183;47.808;9.476;2023-01-01T08:39:39;12.00;99.90
20045;DHT22;10183;47.808;9.476;2023-01-01T08:42:05;12.10;99.90
20045;DHT22;10183;47.808;9.476;2023-01-01T08:44:32;12.10;99.90
20045;DHT22;10183;47.808;9.476;2023-01-01T08:46:58;12.20;99.90
20045;DHT22;10183;47.808;9.476;2023-01-01T08:49:24;12.20;99.90
20045;DHT22;10183;47.808;9.476;2023-01-01T08:51:50;12.30;99.90
20045;DHT22;10183;47.808;9.476;2023-01-01T08:54:16;12.30;99.90
20045;DHT22;10183;47.808;9.476;2023-01-01T08:56:42;12.30;99.90
20045;DHT22;10183;47.808;9.476;2023-01-01T08:59:09;12.30;99.90
20045;DHT22;10183;47.808;9.476;2023-01-01T09:01:35;12.40;99.90
20045;DHT22;10183;47.808;9.476;2023-01-01T09:04:01;12.30;99.90
20045;DHT22;10183;47.808;9.476;2023-01-01T09:06:27;12.30;99.90
20045;DHT22;10183;47.808;9.476;2023-01-01T09:08:53;12.40;99.90
20045;DHT22;10183;47.808;9.476;2023-01-01T09:11:26;12.40;99.90
20045;DHT22;10183;47.808;9.476;2023-01-01T09:13:53;12.40;99.90
20045;DHT22;10183;47.808;9.476;2023-01-01T09:16:20;12.20;99.90
20045;DHT22;10183;47.808;9.476;2023-01-01T09:18:47;12.30;99.90
20045;DHT22;10183;47.808;9.476;2023-01-01T09:21:13;12.30;99.90
20045;DHT22;10183;47.808;9.476;2023-01-01T09:23:40;12.40;99.90
20045;DHT22;10183;47.808;9.476;2023-01-01T09:26:08;12.40;99.90
20045;DHT22;10183;47.808;9.476;2023-01-01T09:28:35;12.40;99.90
20045;DHT22;10183;47.808;9.476;2023-01-01T09:31:02;12.30;99.90
20045;DHT22;10183;47.808;9.476;2023-01-01T09:33:34;12.30;99.90
20045;DHT22;10183;47.808;9.476;2023-01-01T09:36:31;12.40;99.90
20045;DHT22;10183;47.808;9.476;2023-01-01T09:38:58;12.60;99.90
20045;DHT22;10183;47.808;9.476;2023-01-01T09:42:04;12.60;99.90
20045;DHT22;10183;47.808;9.476;2023-01-01T09:47:41;12.80;99.90
20045;DHT22;10183;47.808;9.476;2023-01-01T09:50:21;12.90;99.90
20045;DHT22;10183;47.808;9.476;2023-01-01T09:58:10;12.90;99.90
20045;DHT22;10183;47.808;9.476;2023-01-01T10:00:40;13.10;99.90
20045;DHT22;10183;47.808;9.476;2023-01-01T10:05:53;13.10;99.90
20045;DHT22;10183;47.808;9.476;2023-01-01T10:08:33;13.10;99.90
20045;DHT22;10183;47.808;9.476;2023-01-01T10:11:25;13.10;99.90
20045;DHT22;10183;47.808;9.476;2023-01-01T10:13:53;13.10;99.90
20045;DHT22;10183;47.808;9.476;2023-01-01T10:16:33;13.00;99.90
20045;DHT22;10183;47.808;9.476;2023-01-01T10:21:42;13.00;99.90
20045;DHT22;10183;47.808;9.476;2023-01-01T10:24:36;13.10;99.90
20045;DHT22;10183;47.808;9.476;2023-01-01T10:27:04;13.10;99.90
20045;DHT22;10183;47.808;9.476;2023-01-01T10:29:39;13.20;99.90
20045;DHT22;10183;47.808;9.476;2023-01-01T10:32:27;13.10;99.90
20045;DHT22;10183;47.808;9.476;2023-01-01T10:34:54;13.30;99.90
20045;DHT22;10183;47.808;9.476;2023-01-01T10:37:22;13.40;99.90
20045;DHT22;10183;47.808;9.476;2023-01-01T10:39:49;13.80;99.90
20045;DHT22;10183;47.808;9.476;2023-01-01T10:42:15;13.60;99.90
20045;DHT22;10183;47.808;9.476;2023-01-01T10:44:42;13.40;99.90
20045;DHT22;10183;47.808;9.476;2023-01-01T10:47:28;13.30;99.90
20045;DHT22;10183;47.808;9.476;2023-01-01T10:49:57;13.20;99.90
20045;DHT22;10183;47.808;9.476;2023-01-01T10:52:36;13.40;99.90
20045;DHT22;10183;47.808;9.476;2023-01-01T10:55:04;13.10;99.90
20045;DHT22;10183;47.808;9.476;2023-01-01T10:57:36;13.10;99.90
20045;DHT22;10183;47.808;9.476;2023-01-01T11:00:21;13.30;99.90
20045;DHT22;10183;47.808;9.476;2023-01-01T11:03:20;13.50;99.90
20045;DHT22;10183;47.808;9.476;2023-01-01T11:08:34;13.90;99.90
20045;DHT22;10183;47.808;9.476;2023-01-01T11:11:02;14.20;99.90
20045;DHT22;10183;47.808;9.476;2023-01-01T11:13:30;14.20;99.90
20045;DHT22;10183;47.808;9.476;2023-01-01T11:15:57;14.30;99.90
20045;DHT22;10183;47.808;9.476;2023-01-01T11:18:30;14.50;99.90
20045;DHT22;10183;47.808;9.476;2023-01-01T11:21:03;15.30;99.90
20045;DHT22;10183;47.808;9.476;2023-01-01T11:23:34;14.80;99.90
20045;DHT22;10183;47.808;9.476;2023-01-01T11:28:40;14.70;99.90
20045;DHT22;10183;47.808;9.476;2023-01-01T11:31:17;15.40;99.90
20045;DHT22;10183;47.808;9.476;2023-01-01T11:33:50;15.20;99.90
20045;DHT22;10183;47.808;9.476;2023-01-01T11:36:30;15.20;99.90
20045;DHT22;10183;47.808;9.476;2023-01-01T11:41:49;15.10;99.90
20045;DHT22;10183;47.808;9.476;2023-01-01T11:44:39;15.50;99.90
20045;DHT22;10183;47.808;9.476;2023-01-01T11:47:51;15.30;99.90
20045;DHT22;10183;47.808;9.476;2023-01-01T11:50:22;15.20;99.90
20045;DHT22;10183;47.808;9.476;2023-01-01T11:52:51;15.40;99.90
20045;DHT22;10183;47.808;9.476;2023-01-01T12:00:50;15.60;99.90
20045;DHT22;10183;47.808;9.476;2023-01-01T12:03:30;15.40;99.90
20045;DHT22;10183;47.808;9.476;2023-01-01T12:08:50;15.80;99.90
20045;DHT22;10183;47.808;9.476;2023-01-01T12:13:59;15.80;99.90
20045;DHT22;10183;47.808;9.476;2023-01-01T12:16:49;16.10;99.90
20045;DHT22;10183;47.808;9.476;2023-01-01T12:19:24;16.00;99.90
20045;DHT22;10183;47.808;9.476;2023-01-01T12:21:57;16.10;99.90
20045;DHT22;10183;47.808;9.476;2023-01-01T12:24:33;16.20;99.90
20045;DHT22;10183;47.808;9.476;2023-01-01T12:36:00;15.40;99.90
20045;DHT22;10183;47.808;9.476;2023-01-01T12:52:00;15.60;99.90
20045;DHT22;10183;47.808;9.476;2023-01-01T12:54:55;15.80;99.90
20045;DHT22;10183;47.808;9.476;2023-01-01T12:57:31;15.80;99.90
20045;DHT22;10183;47.808;9.476;2023-01-01T13:00:03;15.50;99.90
20045;DHT22;10183;47.808;9.476;2023-01-01T13:02:39;15.50;99.90
20045;DHT22;10183;47.808;9.476;2023-01-01T13:05:14;16.00;99.90
20045;DHT22;10183;47.808;9.476;2023-01-01T13:07:44;16.00;99.90
20045;DHT22;10183;47.808;9.476;2023-01-01T13:10:24;16.10;99.90
20045;DHT22;10183;47.808;9.476;2023-01-01T13:12:53;16.60;99.90
20045;DHT22;10183;47.808;9.476;2023-01-01T13:21:04;15.90;99.90
20045;DHT22;10183;47.808;9.476;2023-01-01T13:39:56;16.70;99.90
20045;DHT22;10183;47.808;9.476;2023-01-01T13:42:45;16.30;99.90
20045;DHT22;10183;47.808;9.476;2023-01-01T13:45:38;16.50;99.90
20045;DHT22;10183;47.808;9.476;2023-01-01T13:48:28;16.60;99.90
20045;DHT22;10183;47.808;9.476;2023-01-01T13:53:48;16.50;99.90
20045;DHT22;10183;47.808;9.476;2023-01-01T13:56:56;18.00;99.90
20045;DHT22;10183;47.808;9.476;2023-01-01T14:02:25;17.10;99.90
20045;DHT22;10183;47.808;9.476;2023-01-01T14:05:03;17.40;99.90
20045;DHT22;10183;47.808;9.476;2023-01-01T14:07:48;16.70;99.90
20045;DHT22;10183;47.808;9.476;2023-01-01T14:10:33;18.20;99.90
20045;DHT22;10183;47.808;9.476;2023-01-01T14:15:38;17.00;99.90
20045;DHT22;10183;47.808;9.476;2023-01-01T14:18:15;17.80;99.90
20045;DHT22;10183;47.808;9.476;2023-01-01T14:20:45;17.00;99.90
20045;DHT22;10183;47.808;9.476;2023-01-01T14:25:45;18.00;99.90
20045;DHT22;10183;47.808;9.476;2023-01-01T14:28:32;17.80;99.90
20045;DHT22;10183;47.808;9.476;2023-01-01T14:31:02;17.40;99.90
20045;DHT22;10183;47.808;9.476;2023-01-01T14:33:32;16.90;99.90
20045;DHT22;10183;47.808;9.476;2023-01-01T14:36:12;17.20;99.90
20045;DHT22;10183;47.808;9.476;2023-01-01T14:38:44;16.60;99.90
20045;DHT22;10183;47.808;9.476;2023-01-01T14:41:40;18.00;99.90
20045;DHT22;10183;47.808;9.476;2023-01-01T14:44:14;17.80;99.90
20045;DHT22;10183;47.808;9.476;2023-01-01T14:46:44;18.90;99.90
20045;DHT22;10183;47.808;9.476;2023-01-01T14:49:19;17.90;99.90
20045;DHT22;10183;47.808;9.476;2023-01-01T14:52:39;19.30;99.90
20045;DHT22;10183;47.808;9.476;2023-01-01T14:54:42;19.20;99.90
20045;DHT22;10183;47.808;9.476;2023-01-01T14:57:14;20.10;99.90
20045;DHT22;10183;47.808;9.476;2023-01-01T14:59:46;20.10;99.90
20045;DHT22;10183;47.808;9.476;2023-01-01T15:02:19;19.10;99.90
20045;DHT22;10183;47.808;9.476;2023-01-01T15:04:47;19.10;99.90
20045;DHT22;10183;47.808;9.476;2023-01-01T15:07:31;18.90;99.90
20045;DHT22;10183;47.808;9.476;2023-01-01T15:10:00;18.60;99.90
20045;DHT22;10183;47.808;9.476;2023-01-01T15:12:34;18.20;99.90
20045;DHT22;10183;47.808;9.476;2023-01-01T15:15:02;17.50;99.90
20045;DHT22;10183;47.808;9.476;2023-01-01T15:17:44;16.40;99.90
20045;DHT22;10183;47.808;9.476;2023-01-01T15:20:20;15.60;99.90
20045;DHT22;10183;47.808;9.476;2023-01-01T15:22:49;15.30;99.90
20045;DHT22;10183;47.808;9.476;2023-01-01T15:25:17;14.50;99.90
20045;DHT22;10183;47.808;9.476;2023-01-01T15:27:54;14.20;99.90
20045;DHT22;10183;47.808;9.476;2023-01-01T15:30:29;13.50;99.90
20045;DHT22;10183;47.808;9.476;2023-01-01T15:33:05;13.30;99.90
20045;DHT22;10183;47.808;9.476;2023-01-01T15:35:32;13.00;99.90
20045;DHT22;10183;47.808;9.476;2023-01-01T15:40:36;12.70;99.90
20045;DHT22;10183;47.808;9.476;2023-01-01T15:43:15;12.50;99.90
20045;DHT22;10183;47.808;9.476;2023-01-01T15:45:51;12.30;99.90
20045;DHT22;10183;47.808;9.476;2023-01-01T15:53:25;11.90;99.90
20045;DHT22;10183;47.808;9.476;2023-01-01T15:56:26;11.80;99.90
20045;DHT22;10183;47.808;9.476;2023-01-01T15:59:03;11.70;99.90
20045;DHT22;10183;47.808;9.476;2023-01-01T16:01:32;11.50;99.90
20045;DHT22;10183;47.808;9.476;2023-01-01T16:04:14;11.40;99.90
20045;DHT22;10183;47.808;9.476;2023-01-01T16:06:46;11.20;99.90
20045;DHT22;10183;47.808;9.476;2023-01-01T16:09:13;11.00;99.90
20045;DHT22;10183;47.808;9.476;2023-01-01T16:11:41;11.00;99.90
20045;DHT22;10183;47.808;9.476;2023-01-01T16:14:07;10.60;99.90
20045;DHT22;10183;47.808;9.476;2023-01-01T16:16:36;10.50;99.90
20045;DHT22;10183;47.808;9.476;2023-01-01T16:19:03;10.30;99.90
20045;DHT22;10183;47.808;9.476;2023-01-01T16:21:30;10.20;99.90
20045;DHT22;10183;47.808;9.476;2023-01-01T16:24:00;10.10;99.90
20045;DHT22;10183;47.808;9.476;2023-01-01T16:26:26;10.00;99.90
20045;DHT22;10183;47.808;9.476;2023-01-01T16:28:52;10.00;99.90
20045;DHT22;10183;47.808;9.476;2023-01-01T16:31:22;9.90;99.90
20045;DHT22;10183;47.808;9.476;2023-01-01T16:33:54;9.80;99.90
20045;DHT22;10183;47.808;9.476;2023-01-01T16:36:21;9.70;99.90
20045;DHT22;10183;47.808;9.476;2023-01-01T16:38:47;9.60;99.90
20045;DHT22;10183;47.808;9.476;2023-01-01T16:41:15;9.20;99.90
20045;DHT22;10183;47.808;9.476;2023-01-01T16:43:42;9.20;99.90
20045;DHT22;10183;47.808;9.476;2023-01-01T16:46:09;9.20;99.90
20045;DHT22;10183;47.808;9.476;2023-01-01T16:48:36;9.20;99.90
20045;DHT22;10183;47.808;9.476;2023-01-01T16:51:03;9.20;99.90
20045;DHT22;10183;47.808;9.476;2023-01-01T16:53:30;9.30;99.90
20045;DHT22;10183;47.808;9.476;2023-01-01T16:55:56;9.30;99.90
20045;DHT22;10183;47.808;9.476;2023-01-01T16:58:23;9.30;99.90
20045;DHT22;10183;47.808;9.476;2023-01-01T17:00:49;9.30;99.90
20045;DHT22;10183;47.808;9.476;2023-01-01T17:03:16;9.20;99.90
20045;DHT22;10183;47.808;9.476;2023-01-01T17:05:42;9.10;99.90
20045;DHT22;10183;47.808;9.476;2023-01-01T17:08:09;9.00;99.90
20045;DHT22;10183;47.808;9.476;2023-01-01T17:10:35;8.90;99.90
20045;DHT22;10183;47.808;9.476;2023-01-01T17:13:01;9.00;99.90
20045;DHT22;10183;47.808;9.476;2023-01-01T17:15:28;9.10;99.90
20045;DHT22;10183;47.808;9.476;2023-01-01T17:17:54;9.00;99.90
20045;DHT22;10183;47.808;9.476;2023-01-01T17:20:20;8.90;99.90
20045;DHT22;10183;47.808;9.476;2023-01-01T17:22:46;8.80;99.90
20045;DHT22;10183;47.808;9.476;2023-01-01T17:25:13;8.70;99.90
20045;DHT22;10183;47.808;9.476;2023-01-01T17:27:39;8.60;99.90
20045;DHT22;10183;47.808;9.476;2023-01-01T17:30:05;8.60;99.90
20045;DHT22;10183;47.808;9.476;2023-01-01T17:32:32;8.60;99.90
20045;DHT22;10183;47.808;9.476;2023-01-01T17:35:00;8.70;99.90
20045;DHT22;10183;47.808;9.476;2023-01-01T17:37:26;8.60;99.90
20045;DHT22;10183;47.808;9.476;2023-01-01T17:39:52;8.60;99.90
20045;DHT22;10183;47.808;9.476;2023-01-01T17:42:18;8.60;99.90
20045;DHT22;10183;47.808;9.476;2023-01-01T17:44:45;8.60;99.90
20045;DHT22;10183;47.808;9.476;2023-01-01T17:47:11;8.60;99.90
20045;DHT22;10183;47.808;9.476;2023-01-01T17:49:37;8.50;99.90
20045;DHT22;10183;47.808;9.476;2023-01-01T17:52:04;8.00;99.90
20045;DHT22;10183;47.808;9.476;2023-01-01T17:54:31;7.90;99.90
20045;DHT22;10183;47.808;9.476;2023-01-01T17:56:57;7.90;99.90
20045;DHT22;10183;47.808;9.476;2023-01-01T17:59:31;7.90;99.90
20045;DHT22;10183;47.808;9.476;2023-01-01T18:01:58;8.00;99.90
20045;DHT22;10183;47.808;9.476;2023-01-01T18:04:25;8.10;99.90
20045;DHT22;10183;47.808;9.476;2023-01-01T18:06:51;8.20;99.90